Time;durP1;ratioP1;P1;durP2;ratioP2;P2;SDS_P1;SDS_P2;PMS_P1;PMS_P2;Temp;Humidity;BMP_temperature;BMP_pressure;BME280_temperature;BME280_humidity;BME280_pressure;Samples;Min_cycle;Max_cycle;Signal;HPM_P1;HPM_P2
2022/04/03 00:01:14;;;;;;;8.40;4.53;;;-0.50;99.90;;;;;;5059704;28;20040;-40
2022/04/03 00:03:41;;;;;;;6.35;4.13;;;-0.50;99.90;;;;;;5063089;28;20408;-39
2022/04/03 00:06:07;;;;;;;7.43;4.53;;;-0.50;99.90;;;;;;5049695;28;20060;-40
2022/04/03 00:08:33;;;;;;;6.10;3.95;;;-0.40;99.90;;;;;;5060333;28;20044;-38
2022/04/03 00:10:59;;;;;;;8.40;4.78;;;-0.40;99.90;;;;;;5056929;28;20132;-39
2022/04/03 00:13:25;;;;;;;6.05;4.72;;;-0.50;99.90;;;;;;5054429;28;20555;-40
2022/04/03 00:16:00;;;;;;;7.45;4.53;;;-0.40;99.90;;;;;;5059290;28;20055;-39
2022/04/03 00:18:26;;;;;;;6.65;4.50;;;-0.40;99.90;;;;;;5060584;28;20050;-39
2022/04/03 00:20:59;;;;;;;8.95;4.53;;;-0.40;99.90;;;;;;5059722;28;20036;-41
2022/04/03 00:23:27;;;;;;;5.93;3.90;;;-0.40;99.90;;;;;;5044373;28;20047;-40
2022/04/03 00:25:56;;;;;;;7.38;4.63;;;-0.40;99.90;;;;;;5059358;28;20041;-41
2022/04/03 00:28:22;;;;;;;5.68;4.20;;;-0.40;99.90;;;;;;5059547;28;20079;-39
2022/04/03 00:30:48;;;;;;;6.72;4.53;;;-0.40;99.90;;;;;;5060002;28;20059;-40
2022/04/03 00:33:14;;;;;;;11.40;4.57;;;-0.30;99.90;;;;;;5040406;28;20049;-41
2022/04/03 00:35:40;;;;;;;5.95;4.40;;;-0.30;99.90;;;;;;5051723;28;20506;-41
2022/04/03 00:38:07;;;;;;;7.03;4.45;;;-0.30;99.90;;;;;;5054326;28;20052;-39
2022/04/03 00:40:33;;;;;;;7.05;4.88;;;-0.20;99.90;;;;;;5054424;28;20078;-39
2022/04/03 00:42:58;;;;;;;6.45;4.25;;;-0.10;99.90;;;;;;5051698;28;20641;-40
2022/04/03 00:45:24;;;;;;;5.93;4.25;;;-0.10;99.90;;;;;;5057659;28;20052;-39
2022/04/03 00:47:54;;;;;;;8.88;4.80;;;-0.10;99.90;;;;;;5059462;28;20064;-40
2022/04/03 00:50:20;;;;;;;6.15;4.15;;;0.00;99.90;;;;;;5058029;28;20048;-39
2022/04/03 00:52:47;;;;;;;8.90;4.45;;;0.00;99.90;;;;;;5055286;28;20499;-39
2022/04/03 00:55:13;;;;;;;6.47;4.18;;;0.10;99.90;;;;;;5060321;28;20080;-39
2022/04/03 00:57:42;;;;;;;10.10;4.28;;;0.10;99.90;;;;;;5057045;28;20048;-39
2022/04/03 01:00:09;;;;;;;5.93;3.67;;;0.20;99.90;;;;;;5024832;28;20142;-39
2022/04/03 01:02:36;;;;;;;7.32;4.50;;;0.20;99.90;;;;;;5051547;28;20079;-39
2022/04/03 01:05:02;;;;;;;4.97;4.00;;;0.20;99.90;;;;;;5058488;28;20499;-40
2022/04/03 01:07:28;;;;;;;4.78;3.60;;;0.30;99.90;;;;;;5037289;28;20064;-39
2022/04/03 01:09:53;;;;;;;6.93;3.58;;;0.40;99.90;;;;;;5053007;28;20044;-39
2022/04/03 01:12:19;;;;;;;5.55;3.20;;;0.40;99.90;;;;;;5054285;28;20056;-39
2022/04/03 01:14:45;;;;;;;9.68;3.78;;;0.50;99.90;;;;;;5058414;28;20155;-40
2022/04/03 01:17:13;;;;;;;4.80;3.72;;;0.50;99.90;;;;;;5058117;28;20167;-39
2022/04/03 01:19:42;;;;;;;5.75;3.70;;;0.50;99.90;;;;;;5061822;28;20094;-39
2022/04/03 01:22:08;;;;;;;5.97;3.40;;;0.60;99.90;;;;;;5063375;28;21136;-39
2022/04/03 01:24:34;;;;;;;5.10;3.65;;;0.60;99.90;;;;;;5064386;28;20493;-39
2022/04/03 01:27:00;;;;;;;8.70;3.63;;;0.70;99.90;;;;;;5063728;28;20057;-41
2022/04/03 01:29:26;;;;;;;6.10;3.67;;;0.70;99.90;;;;;;5063752;28;20048;-39
2022/04/03 01:31:52;;;;;;;4.35;3.00;;;0.70;99.90;;;;;;5038844;28;20080;-40
2022/04/03 01:34:19;;;;;;;5.68;3.25;;;0.70;99.90;;;;;;5056551;28;20090;-39
2022/04/03 01:36:47;;;;;;;3.97;3.13;;;0.80;99.90;;;;;;5054602;28;20503;-39
2022/04/03 01:39:13;;;;;;;7.40;3.80;;;0.90;99.90;;;;;;5056590;28;20093;-39
2022/04/03 01:41:39;;;;;;;4.93;3.53;;;0.90;99.90;;;;;;5034718;28;20056;-39
2022/04/03 01:44:07;;;;;;;6.78;3.38;;;0.90;99.90;;;;;;5048798;28;20146;-39
2022/04/03 01:46:34;;;;;;;6.32;3.08;;;1.00;99.90;;;;;;5043104;28;20091;-40
2022/04/03 01:48:59;;;;;;;6.10;3.90;;;1.00;99.90;;;;;;5034799;28;20076;-40
2022/04/03 01:51:25;;;;;;;4.22;3.25;;;1.00;99.90;;;;;;5060185;28;20136;-40
2022/04/03 01:53:51;;;;;;;4.50;3.30;;;1.00;99.90;;;;;;5054016;28;20044;-40
2022/04/03 01:56:17;;;;;;;4.47;3.25;;;1.00;99.90;;;;;;5056673;28;20107;-39
2022/04/03 01:58:43;;;;;;;5.82;4.00;;;1.00;99.90;;;;;;5052908;28;20044;-39
2022/04/03 02:01:08;;;;;;;4.90;3.28;;;1.10;99.90;;;;;;5056666;28;20564;-39
2022/04/03 02:03:34;;;;;;;5.90;4.07;;;1.10;99.90;;;;;;5052169;28;20047;-40
2022/04/03 02:06:00;;;;;;;7.47;3.70;;;1.10;99.90;;;;;;5051225;28;20092;-39
2022/04/03 02:08:27;;;;;;;8.85;4.22;;;1.00;99.90;;;;;;5059614;28;20040;-41
2022/04/03 02:10:53;;;;;;;6.45;3.83;;;1.00;99.90;;;;;;5048215;28;20092;-40
2022/04/03 02:13:19;;;;;;;6.97;3.65;;;1.10;99.90;;;;;;5059790;28;20150;-39
2022/04/03 02:15:46;;;;;;;10.18;3.25;;;1.10;99.90;;;;;;5056023;28;20073;-40
2022/04/03 02:18:13;;;;;;;4.53;3.38;;;1.10;99.90;;;;;;5053810;28;20677;-39
2022/04/03 02:20:39;;;;;;;7.20;4.00;;;1.10;99.90;;;;;;5052491;28;20049;-39
2022/04/03 02:23:07;;;;;;;5.97;3.47;;;1.10;99.90;;;;;;5054342;28;20048;-39
2022/04/03 02:25:33;;;;;;;5.93;3.33;;;1.10;99.90;;;;;;5061045;28;20056;-40
2022/04/03 02:27:59;;;;;;;5.38;3.60;;;1.10;99.90;;;;;;5062314;28;20041;-39
2022/04/03 02:30:25;;;;;;;7.57;3.90;;;1.10;99.90;;;;;;5053625;28;20060;-39
2022/04/03 02:32:51;;;;;;;7.00;3.80;;;1.10;99.90;;;;;;5046371;28;20056;-41
2022/04/03 02:35:17;;;;;;;5.18;3.88;;;1.10;99.90;;;;;;5062539;28;20846;-40
2022/04/03 02:37:48;;;;;;;7.50;4.65;;;1.10;99.90;;;;;;5060390;28;20059;-39
2022/04/03 02:40:16;;;;;;;8.18;4.15;;;1.10;99.90;;;;;;5050172;28;21060;-40
2022/04/03 02:42:42;;;;;;;11.55;4.40;;;1.10;99.90;;;;;;5053416;28;20579;-39
2022/04/03 02:45:13;;;;;;;5.20;3.80;;;1.00;99.90;;;;;;5055788;28;20085;-40
2022/04/03 02:47:39;;;;;;;4.72;4.00;;;1.00;99.90;;;;;;5054830;28;20534;-40
2022/04/03 02:50:06;;;;;;;5.43;4.35;;;1.00;99.90;;;;;;5036980;28;20063;-39
2022/04/03 02:52:32;;;;;;;6.65;4.65;;;1.00;99.90;;;;;;5060494;28;20182;-41
2022/04/03 02:54:58;;;;;;;6.65;4.38;;;1.00;99.90;;;;;;5056774;28;20566;-39
2022/04/03 02:57:24;;;;;;;7.10;4.90;;;1.00;99.90;;;;;;5055048;28;20102;-39
2022/04/03 02:59:50;;;;;;;8.18;4.90;;;0.90;99.90;;;;;;5053825;28;20447;-39
2022/04/03 03:02:16;;;;;;;6.53;5.30;;;0.80;99.90;;;;;;5054328;28;20048;-41
2022/04/03 03:04:42;;;;;;;7.82;4.90;;;0.70;99.90;;;;;;5054023;28;20057;-39
2022/04/03 03:07:09;;;;;;;6.47;4.43;;;0.70;99.90;;;;;;5039324;28;20057;-41
2022/04/03 03:09:35;;;;;;;5.38;4.22;;;0.70;99.90;;;;;;5047872;28;20048;-39
2022/04/03 03:12:01;;;;;;;5.47;4.57;;;0.60;99.90;;;;;;5053104;28;20068;-40
2022/04/03 03:14:28;;;;;;;7.53;5.20;;;0.60;99.90;;;;;;5056082;28;20148;-39
2022/04/03 03:16:55;;;;;;;8.27;5.40;;;0.50;99.90;;;;;;5053637;28;20089;-40
2022/04/03 03:19:21;;;;;;;10.27;5.18;;;0.50;99.90;;;;;;5052886;28;20505;-40
2022/04/03 03:21:47;;;;;;;6.78;4.97;;;0.40;99.90;;;;;;5056631;28;20052;-40
2022/04/03 03:24:13;;;;;;;6.82;4.75;;;0.30;99.90;;;;;;5060371;28;20067;-39
2022/04/03 03:26:39;;;;;;;6.88;3.72;;;0.30;99.90;;;;;;5055355;28;20457;-39
2022/04/03 03:29:04;;;;;;;6.32;4.10;;;0.30;99.90;;;;;;5051437;28;20037;-41
2022/04/03 03:31:31;;;;;;;7.68;3.72;;;0.20;99.90;;;;;;5055196;28;20095;-40
2022/04/03 03:33:57;;;;;;;8.93;3.97;;;0.20;99.90;;;;;;5059718;28;20048;-40
2022/04/03 03:36:23;;;;;;;6.38;3.67;;;0.10;99.90;;;;;;5031671;28;20040;-39
2022/04/03 03:38:48;;;;;;;8.57;4.82;;;0.10;99.90;;;;;;5053278;28;20051;-40
2022/04/03 03:41:14;;;;;;;6.03;4.38;;;0.10;99.90;;;;;;5056555;28;20503;-44
2022/04/03 03:43:41;;;;;;;9.00;4.95;;;0.10;99.90;;;;;;5055035;28;20051;-40
2022/04/03 03:46:08;;;;;;;12.32;6.15;;;0.00;99.90;;;;;;5059506;28;20040;-39
2022/04/03 03:48:35;;;;;;;10.65;5.68;;;0.00;99.90;;;;;;5055058;28;20052;-39
2022/04/03 03:51:00;;;;;;;8.45;5.40;;;0.00;99.90;;;;;;5053018;28;20365;-41
2022/04/03 03:53:26;;;;;;;7.97;4.13;;;-0.10;99.90;;;;;;5059739;28;20056;-40
2022/04/03 03:55:52;;;;;;;8.18;4.68;;;-0.10;99.90;;;;;;5050996;28;20451;-40
2022/04/03 03:58:18;;;;;;;7.28;4.13;;;-0.10;99.90;;;;;;5048393;28;20087;-40
2022/04/03 04:00:43;;;;;;;8.32;4.63;;;-0.20;99.90;;;;;;5039342;28;20053;-39
2022/04/03 04:03:09;;;;;;;7.50;4.68;;;-0.20;99.90;;;;;;5034414;28;20183;-40
2022/04/03 04:05:35;;;;;;;9.45;5.38;;;-0.20;99.90;;;;;;5057135;28;20474;-39
2022/04/03 04:08:01;;;;;;;8.35;4.25;;;-0.30;99.90;;;;;;5029681;28;20045;-41
2022/04/03 04:10:27;;;;;;;9.27;4.30;;;-0.30;99.90;;;;;;5034632;28;20067;-40
2022/04/03 04:12:52;;;;;;;7.38;5.07;;;-0.30;99.90;;;;;;5046119;28;20459;-39
2022/04/03 04:15:18;;;;;;;5.32;4.30;;;-0.30;99.90;;;;;;5038046;28;20562;-40
2022/04/03 04:17:46;;;;;;;6.22;4.05;;;-0.20;99.90;;;;;;5053560;28;20041;-39
2022/04/03 04:20:16;;;;;;;7.30;4.50;;;-0.20;99.90;;;;;;5058242;28;20044;-39
2022/04/03 04:22:44;;;;;;;9.27;4.05;;;-0.20;99.90;;;;;;5057240;28;20045;-39
2022/04/03 04:25:14;;;;;;;6.15;4.13;;;-0.30;99.90;;;;;;5038859;28;20060;-40
2022/04/03 04:27:40;;;;;;;6.75;4.15;;;-0.30;99.90;;;;;;5033143;28;20090;-39
2022/04/03 04:30:10;;;;;;;6.22;3.38;;;-0.40;99.90;;;;;;5056849;28;20155;-39
2022/04/03 04:32:36;;;;;;;5.85;3.40;;;-0.40;99.90;;;;;;5053662;28;20085;-40
2022/04/03 04:35:03;;;;;;;6.05;3.60;;;-0.40;99.90;;;;;;5052282;28;20063;-40
2022/04/03 04:37:29;;;;;;;5.10;3.40;;;-0.40;99.90;;;;;;5053178;28;20127;-40
2022/04/03 04:39:55;;;;;;;5.47;3.55;;;-0.50;99.90;;;;;;5055829;28;20059;-39
2022/04/03 04:42:21;;;;;;;4.50;3.20;;;-0.50;99.90;;;;;;5053595;28;20049;-39
2022/04/03 04:44:47;;;;;;;4.78;3.08;;;-0.50;99.90;;;;;;5053676;28;20044;-39
2022/04/03 04:47:16;;;;;;;5.00;3.95;;;-0.50;99.90;;;;;;5053790;28;20372;-42
2022/04/03 04:49:41;;;;;;;7.57;3.30;;;-0.50;99.90;;;;;;5055377;28;20052;-40
2022/04/03 04:52:07;;;;;;;3.90;3.05;;;-0.50;99.90;;;;;;5056607;28;20049;-39
2022/04/03 04:54:33;;;;;;;4.57;3.00;;;-0.50;99.90;;;;;;5054951;28;20075;-39
2022/04/03 04:56:59;;;;;;;5.72;3.08;;;-0.50;99.90;;;;;;5063345;28;20056;-39
2022/04/03 04:59:25;;;;;;;4.03;2.75;;;-0.50;99.90;;;;;;5052589;28;20094;-39
2022/04/03 05:01:50;;;;;;;6.03;2.97;;;-0.50;99.90;;;;;;5061792;28;20448;-40
2022/04/03 05:04:17;;;;;;;4.43;3.08;;;-0.50;99.90;;;;;;5057367;28;20063;-40
2022/04/03 05:06:44;;;;;;;6.68;3.00;;;-0.50;99.90;;;;;;5059552;28;20110;-39
2022/04/03 05:09:09;;;;;;;4.75;2.83;;;-0.50;99.90;;;;;;5050106;28;20048;-40
2022/04/03 05:11:41;;;;;;;3.65;2.63;;;-0.40;99.90;;;;;;5058528;28;20056;-39
2022/04/03 05:14:06;;;;;;;4.60;2.05;;;-0.50;99.90;;;;;;5057508;28;20048;-40
2022/04/03 05:16:32;;;;;;;7.03;2.53;;;-0.40;99.90;;;;;;5056661;28;20048;-39
2022/04/03 05:18:58;;;;;;;4.97;2.65;;;-0.40;99.90;;;;;;5045726;28;20471;-40
2022/04/03 05:21:24;;;;;;;5.35;2.80;;;-0.40;99.90;;;;;;5056958;28;20036;-39
2022/04/03 05:23:51;;;;;;;3.63;2.42;;;-0.40;99.90;;;;;;5056234;28;20073;-40
2022/04/03 05:26:17;;;;;;;5.30;2.40;;;-0.30;99.90;;;;;;5062487;28;20554;-39
2022/04/03 05:28:44;;;;;;;8.00;2.58;;;-0.20;99.90;;;;;;5062460;28;20562;-40
2022/04/03 05:31:10;;;;;;;4.10;2.33;;;0.20;99.90;;;;;;5055047;28;20554;-40
2022/04/03 05:33:36;;;;;;;7.80;2.63;;;0.70;99.90;;;;;;5056296;28;20411;-39
2022/04/03 05:36:02;;;;;;;4.97;2.42;;;1.40;99.90;;;;;;5027172;28;20057;-40
2022/04/03 05:38:32;;;;;;;6.13;2.13;;;2.10;99.90;;;;;;5039396;28;20133;-40
2022/04/03 05:40:57;;;;;;;2.88;1.77;;;2.60;99.90;;;;;;5070591;28;20825;-40
2022/04/03 05:43:23;;;;;;;3.97;1.50;;;3.00;99.90;;;;;;5082565;28;20110;-40
2022/04/03 05:45:49;;;;;;;5.57;1.75;;;3.50;99.90;;;;;;5085509;28;20048;-40
2022/04/03 05:48:15;;;;;;;3.22;1.38;;;3.50;99.90;;;;;;5062640;28;20052;-41
2022/04/03 05:50:40;;;;;;;3.55;1.80;;;3.20;99.90;;;;;;5083933;28;20525;-43
2022/04/03 05:53:06;;;;;;;2.35;1.27;;;3.10;99.90;;;;;;5078401;28;20044;-40
2022/04/03 05:55:32;;;;;;;3.35;1.50;;;3.40;99.90;;;;;;5082008;28;20143;-40
2022/04/03 05:57:58;;;;;;;3.45;1.98;;;3.40;99.90;;;;;;5081817;28;20832;-40
2022/04/03 06:00:27;;;;;;;3.95;1.38;;;3.10;99.90;;;;;;5081410;28;20048;-39
2022/04/03 06:03:00;;;;;;;4.60;1.40;;;2.80;99.90;;;;;;5080025;28;20095;-39
2022/04/03 06:05:28;;;;;;;3.72;1.20;;;2.60;99.90;;;;;;5081011;28;20495;-40
2022/04/03 06:07:53;;;;;;;3.97;1.70;;;3.50;99.90;;;;;;5081380;28;20510;-40
2022/04/03 06:10:21;;;;;;;6.03;1.50;;;4.70;99.90;;;;;;5057154;28;20063;-42
2022/04/03 06:13:03;;;;;;;3.50;1.42;;;5.20;99.90;;;;;;5076062;28;20060;-40
2022/04/03 06:15:43;;;;;;;3.13;1.60;;;5.40;99.90;;;;;;5077955;28;20047;-40
2022/04/03 06:18:13;;;;;;;3.90;1.60;;;5.80;99.90;;;;;;5075457;28;20036;-40
2022/04/03 06:20:42;;;;;;;3.65;1.83;;;6.10;99.90;;;;;;5067002;28;20040;-41
2022/04/03 06:23:11;;;;;;;2.97;1.30;;;6.80;99.90;;;;;;5081296;28;20093;-40
2022/04/03 06:25:37;;;;;;;4.78;1.30;;;7.80;99.90;;;;;;5075205;28;20052;-41
2022/04/03 06:28:03;;;;;;;4.30;1.30;;;8.60;99.90;;;;;;5079069;28;20446;-42
2022/04/03 06:30:32;;;;;;;3.03;1.50;;;9.30;99.90;;;;;;5057284;28;20083;-56
2022/04/03 06:32:58;;;;;;;3.97;1.30;;;10.00;99.90;;;;;;5078945;28;20062;-41
2022/04/03 06:35:23;;;;;;;5.45;1.23;;;10.60;99.90;;;;;;5069701;28;20044;-41
2022/04/03 06:37:49;;;;;;;2.80;1.30;;;10.60;99.90;;;;;;5081583;28;20044;-40
2022/04/03 06:40:16;;;;;;;4.18;1.60;;;10.80;99.90;;;;;;5075733;28;20057;-41
2022/04/03 06:42:43;;;;;;;3.83;1.33;;;11.30;99.90;;;;;;5074783;28;20619;-42
2022/04/03 06:45:09;;;;;;;3.75;1.13;;;11.70;99.90;;;;;;5080942;28;20503;-42
2022/04/03 06:47:36;;;;;;;4.95;1.27;;;12.30;99.90;;;;;;5081151;28;20459;-40
2022/04/03 06:50:05;;;;;;;3.95;1.23;;;12.60;98.50;;;;;;5062772;28;20060;-41
2022/04/03 06:52:31;;;;;;;5.78;1.10;;;13.10;98.20;;;;;;5082145;28;20052;-41
2022/04/03 06:54:57;;;;;;;2.90;1.00;;;13.40;97.60;;;;;;5079068;28;20840;-44
2022/04/03 06:57:23;;;;;;;4.22;1.38;;;13.30;96.40;;;;;;5079893;28;20044;-41
2022/04/03 06:59:48;;;;;;;3.22;1.02;;;13.50;96.90;;;;;;5070381;28;20048;-42
2022/04/03 07:02:17;;;;;;;3.92;0.90;;;13.90;96.40;;;;;;5075808;28;20502;-41
2022/04/03 07:04:43;;;;;;;7.00;3.83;;;14.20;96.20;;;;;;5081494;28;20047;-43
2022/04/03 07:07:09;;;;;;;7.60;6.53;;;14.20;95.80;;;;;;5080015;28;20120;-43
2022/04/03 07:09:41;;;;;;;5.43;1.80;;;13.80;96.10;;;;;;5079467;28;20181;-41
2022/04/03 07:12:11;;;;;;;3.65;2.70;;;13.00;96.50;;;;;;5054285;28;20052;-42
2022/04/03 07:14:37;;;;;;;5.18;1.13;;;12.40;97.90;;;;;;5076137;28;20051;-43
2022/04/03 07:17:03;;;;;;;3.72;3.10;;;11.80;98.70;;;;;;5074933;28;20385;-41
2022/04/03 07:19:29;;;;;;;4.53;3.78;;;11.40;99.40;;;;;;5074890;28;20147;-41
2022/04/03 07:21:56;;;;;;;3.08;1.65;;;11.10;99.90;;;;;;5075036;28;20043;-41
2022/04/03 07:24:22;;;;;;;10.48;3.92;;;10.80;99.90;;;;;;5074911;28;20044;-42
2022/04/03 07:26:48;;;;;;;6.85;2.83;;;10.60;99.90;;;;;;5079590;28;20044;-41
2022/04/03 07:29:13;;;;;;;4.65;1.48;;;10.60;99.90;;;;;;5061762;28;20986;-41
2022/04/03 07:31:39;;;;;;;3.75;1.20;;;10.40;99.90;;;;;;5080343;28;20131;-41
2022/04/03 07:34:08;;;;;;;4.50;1.33;;;10.40;99.90;;;;;;5073120;28;20459;-42
2022/04/03 07:36:33;;;;;;;3.15;1.42;;;10.20;99.90;;;;;;5074344;28;20135;-41
2022/04/03 07:38:59;;;;;;;3.30;1.08;;;10.10;99.90;;;;;;5071360;28;20513;-43
2022/04/03 07:41:25;;;;;;;2.20;1.10;;;10.20;99.90;;;;;;5074594;28;20056;-43
2022/04/03 07:43:51;;;;;;;4.28;1.63;;;10.10;99.90;;;;;;5082457;28;20509;-42
2022/04/03 07:46:17;;;;;;;2.55;0.93;;;9.90;99.90;;;;;;5074938;28;20151;-42
2022/04/03 07:48:43;;;;;;;2.67;0.80;;;10.00;99.90;;;;;;5078776;28;20048;-41
2022/04/03 07:51:10;;;;;;;5.13;1.45;;;10.20;99.90;;;;;;5079539;28;20089;-42
2022/04/03 07:53:35;;;;;;;2.28;1.10;;;10.20;99.90;;;;;;5079920;28;20071;-41
2022/04/03 07:56:01;;;;;;;4.75;1.20;;;10.30;99.90;;;;;;5082462;28;20176;-44
2022/04/03 07:58:27;;;;;;;3.88;0.90;;;10.40;99.90;;;;;;5081842;28;20052;-43
2022/04/03 08:00:53;;;;;;;2.70;0.88;;;10.40;99.90;;;;;;5081943;28;20055;-42
2022/04/03 08:03:19;;;;;;;2.63;0.90;;;10.50;99.90;;;;;;5061333;28;20047;-41
2022/04/03 08:05:45;;;;;;;3.83;0.90;;;10.80;99.90;;;;;;5074636;28;20402;-42
2022/04/03 08:08:10;;;;;;;2.17;1.20;;;10.80;99.90;;;;;;5055261;28;20085;-42
2022/04/03 08:10:36;;;;;;;2.47;1.05;;;10.80;99.90;;;;;;5060550;28;20064;-41
2022/04/03 08:13:02;;;;;;;3.60;1.10;;;10.70;99.90;;;;;;5079044;28;20045;-42
2022/04/03 08:15:28;;;;;;;5.25;0.95;;;10.60;99.90;;;;;;5056966;28;20052;-43
2022/04/03 08:18:03;;;;;;;3.20;1.17;;;10.10;99.90;;;;;;5074912;28;20052;-42
2022/04/03 08:20:28;;;;;;;5.00;1.40;;;9.60;99.90;;;;;;5067395;28;20056;-41
2022/04/03 08:22:55;;;;;;;4.18;3.80;;;9.30;99.90;;;;;;5076001;28;20097;-41
2022/04/03 08:25:33;;;;;;;3.25;1.25;;;9.00;99.90;;;;;;5073111;28;20047;-43
2022/04/03 08:28:00;;;;;;;3.05;1.52;;;8.80;99.90;;;;;;5079856;28;20048;-43
2022/04/03 08:30:31;;;;;;;5.88;4.93;;;8.80;99.90;;;;;;5080643;28;20052;-42
2022/04/03 08:32:58;;;;;;;2.72;0.75;;;9.00;99.90;;;;;;5060234;28;20056;-42
2022/04/03 08:35:26;;;;;;;3.20;1.40;;;9.10;99.90;;;;;;5066060;28;20078;-42
2022/04/03 08:37:53;;;;;;;2.40;0.93;;;9.20;99.90;;;;;;5079946;28;20079;-42
2022/04/03 08:40:20;;;;;;;2.40;0.70;;;9.20;99.90;;;;;;5075185;28;20095;-42
2022/04/03 08:42:46;;;;;;;2.67;1.25;;;9.30;99.90;;;;;;5072727;28;20378;-42
2022/04/03 08:45:14;;;;;;;3.78;2.10;;;9.30;99.90;;;;;;5078983;28;20044;-42
2022/04/03 08:47:45;;;;;;;4.13;1.10;;;9.30;99.90;;;;;;5079112;28;20073;-43
2022/04/03 08:50:12;;;;;;;1.33;0.68;;;9.20;99.90;;;;;;5079157;28;20142;-42
2022/04/03 08:52:39;;;;;;;1.35;0.70;;;9.20;99.90;;;;;;5079218;28;20085;-43
2022/04/03 08:55:06;;;;;;;1.70;0.90;;;8.90;99.90;;;;;;5078779;28;20059;-43
2022/04/03 08:57:32;;;;;;;5.57;2.33;;;9.10;99.90;;;;;;5072328;28;20114;-44
2022/04/03 09:00:00;;;;;;;2.00;0.90;;;9.20;99.90;;;;;;5075277;28;20875;-42
2022/04/03 09:02:26;;;;;;;4.00;0.82;;;9.40;99.90;;;;;;5078532;28;20060;-42
2022/04/03 09:04:52;;;;;;;3.83;0.93;;;9.50;99.90;;;;;;5078555;28;20040;-42
2022/04/03 09:07:19;;;;;;;2.30;0.88;;;9.70;99.90;;;;;;5055173;28;20046;-44
2022/04/03 09:09:47;;;;;;;3.22;1.30;;;9.80;99.90;;;;;;5073747;28;20064;-43
2022/04/03 09:12:18;;;;;;;3.92;0.98;;;10.00;99.90;;;;;;5077444;28;20443;-43
2022/04/03 09:14:48;;;;;;;4.13;1.10;;;10.00;99.90;;;;;;5063864;28;20597;-43
2022/04/03 09:17:38;;;;;;;2.35;0.70;;;9.90;99.90;;;;;;5080563;28;20044;-42
2022/04/03 09:20:12;;;;;;;3.05;0.90;;;10.00;99.90;;;;;;5050421;28;20063;-44
2022/04/03 09:22:39;;;;;;;2.28;0.70;;;10.40;99.90;;;;;;5074535;28;20052;-45
2022/04/03 09:25:12;;;;;;;4.38;0.90;;;10.20;99.90;;;;;;5055277;28;20079;-44
2022/04/03 09:28:01;;;;;;;5.45;2.40;;;9.90;99.90;;;;;;5078972;28;20052;-43
2022/04/03 09:30:34;;;;;;;3.22;0.98;;;9.70;99.90;;;;;;5079658;28;20052;-42
2022/04/03 09:33:01;;;;;;;2.65;1.33;;;9.90;99.90;;;;;;5071967;28;20047;-43
2022/04/03 09:35:52;;;;;;;2.80;0.93;;;10.10;99.90;;;;;;5068486;28;20461;-48
2022/04/03 09:38:21;;;;;;;4.22;3.33;;;10.00;99.90;;;;;;5063479;28;20384;-44
2022/04/03 09:40:49;;;;;;;10.70;7.45;;;10.10;99.90;;;;;;5061363;28;20151;-43
2022/04/03 09:43:27;;;;;;;9.68;7.00;;;10.30;99.90;;;;;;5056728;28;20055;-42
2022/04/03 09:45:58;;;;;;;5.47;1.52;;;10.20;99.90;;;;;;5082045;28;20144;-42
2022/04/03 09:48:40;;;;;;;2.97;1.25;;;10.00;99.90;;;;;;5069011;28;20118;-44
2022/04/03 09:51:09;;;;;;;6.10;4.65;;;9.80;99.90;;;;;;5083089;28;20052;-43
2022/04/03 09:53:48;;;;;;;1.92;1.10;;;9.50;99.90;;;;;;5080578;28;20105;-42
2022/04/03 09:56:31;;;;;;;3.50;1.00;;;9.50;99.90;;;;;;5080712;28;20047;-43
2022/04/03 09:59:07;;;;;;;2.30;1.00;;;9.50;99.90;;;;;;5085572;28;20075;-44
2022/04/03 10:01:41;;;;;;;3.42;2.38;;;9.50;99.90;;;;;;5066222;28;20057;-44
2022/04/03 10:04:08;;;;;;;3.88;1.40;;;9.60;99.90;;;;;;5074830;28;20113;-45
2022/04/03 10:06:35;;;;;;;1.77;0.90;;;9.40;99.90;;;;;;5078075;28;20087;-44
2022/04/03 10:09:11;;;;;;;1.83;1.10;;;9.60;99.90;;;;;;5074161;28;20052;-43
2022/04/03 10:11:37;;;;;;;3.17;1.00;;;9.80;99.90;;;;;;5070454;28;20060;-42
2022/04/03 10:14:03;;;;;;;3.47;1.77;;;9.90;99.90;;;;;;5065617;28;20418;-43
2022/04/03 10:16:29;;;;;;;3.47;1.58;;;9.80;99.90;;;;;;5068122;28;20159;-43
2022/04/03 10:18:56;;;;;;;2.17;1.00;;;9.90;99.90;;;;;;5058265;28;20109;-43
2022/04/03 10:21:38;;;;;;;3.95;2.95;;;10.00;99.90;;;;;;5060033;28;20548;-43
2022/04/03 10:24:09;;;;;;;3.72;1.00;;;10.40;99.90;;;;;;5076019;28;20066;-43
2022/04/03 10:26:37;;;;;;;3.03;1.13;;;10.40;99.90;;;;;;5064085;28;20051;-42
2022/04/03 10:29:07;;;;;;;2.10;1.30;;;10.70;99.90;;;;;;5086566;28;20047;-44
2022/04/03 10:31:34;;;;;;;2.22;0.98;;;11.00;99.90;;;;;;5069070;28;20070;-44
2022/04/03 10:33:59;;;;;;;3.83;1.90;;;11.30;99.90;;;;;;5075955;28;20161;-44
2022/04/03 10:36:27;;;;;;;4.88;3.45;;;11.50;99.90;;;;;;5069437;28;20479;-43
2022/04/03 10:39:02;;;;;;;3.85;0.88;;;11.70;99.90;;;;;;5080289;28;20078;-43
2022/04/03 10:41:40;;;;;;;3.03;0.82;;;11.60;97.70;;;;;;5071100;28;20131;-43
2022/04/03 10:44:16;;;;;;;1.98;0.90;;;11.60;98.80;;;;;;5077284;28;20154;-42
2022/04/03 10:47:04;;;;;;;6.18;1.10;;;11.30;97.40;;;;;;5075730;28;20075;-47
2022/04/03 10:49:57;;;;;;;5.10;0.90;;;11.10;98.40;;;;;;5076247;28;20398;-42
2022/04/03 10:52:25;;;;;;;2.22;1.20;;;10.90;99.30;;;;;;5074268;28;20044;-44
2022/04/03 10:54:57;;;;;;;3.20;1.10;;;10.50;99.80;;;;;;5054566;28;20083;-44
2022/04/03 10:57:44;;;;;;;4.78;1.00;;;10.20;99.90;;;;;;5074290;28;20044;-43
2022/04/03 11:00:11;;;;;;;3.72;0.85;;;10.10;99.90;;;;;;5077243;28;20047;-44
2022/04/03 11:02:36;;;;;;;2.00;1.10;;;10.10;98.80;;;;;;5074446;28;20040;-44
2022/04/03 11:05:21;;;;;;;2.50;0.95;;;10.30;99.30;;;;;;5077521;28;20445;-43
2022/04/03 11:07:47;;;;;;;1.60;0.70;;;10.50;98.90;;;;;;5076863;28;20537;-42
2022/04/03 11:10:13;;;;;;;4.15;1.00;;;10.70;99.20;;;;;;5073020;28;20056;-45
2022/04/03 11:12:55;;;;;;;2.58;1.10;;;10.90;99.10;;;;;;5072642;28;20032;-43
2022/04/03 11:15:23;;;;;;;1.83;0.90;;;11.20;99.80;;;;;;5076563;28;20036;-43
2022/04/03 11:17:53;;;;;;;3.58;1.23;;;11.30;98.90;;;;;;5079026;28;20430;-42
2022/04/03 11:20:42;;;;;;;3.35;1.40;;;11.40;98.80;;;;;;5072655;28;20044;-42
2022/04/03 11:23:17;;;;;;;4.07;0.95;;;11.20;99.60;;;;;;5076263;28;20040;-44
2022/04/03 11:25:43;;;;;;;5.57;1.65;;;11.10;99.90;;;;;;5080065;28;20105;-45
2022/04/03 11:28:09;;;;;;;3.53;1.10;;;11.00;99.90;;;;;;5080308;28;20048;-43
2022/04/03 11:30:35;;;;;;;3.28;2.40;;;10.90;99.90;;;;;;5080882;28;20044;-44
2022/04/03 11:33:02;;;;;;;1.90;1.02;;;10.90;99.90;;;;;;5054085;28;20056;-43
2022/04/03 11:35:42;;;;;;;6.60;1.10;;;11.00;98.90;;;;;;5038490;28;20060;-44
2022/04/03 11:38:10;;;;;;;3.80;1.20;;;11.20;98.80;;;;;;5080929;28;20516;-43
2022/04/03 11:40:36;;;;;;;4.70;2.30;;;11.40;99.90;;;;;;5057081;28;20565;-43
2022/04/03 11:43:10;;;;;;;3.85;1.05;;;11.30;98.90;;;;;;5084676;28;20059;-42
2022/04/03 11:45:37;;;;;;;3.72;2.10;;;11.30;99.30;;;;;;5081588;28;20044;-45
2022/04/03 11:48:19;;;;;;;2.60;1.13;;;11.10;98.90;;;;;;5080810;28;20090;-42
2022/04/03 11:50:45;;;;;;;1.73;0.88;;;11.00;99.90;;;;;;5079076;28;20081;-43
2022/04/03 11:53:11;;;;;;;4.18;1.20;;;10.90;99.60;;;;;;5074096;28;20052;-42
2022/04/03 11:55:37;;;;;;;3.58;1.67;;;10.80;99.40;;;;;;5084113;28;20044;-43
2022/04/03 11:58:04;;;;;;;2.90;1.20;;;10.70;97.50;;;;;;5074371;28;20049;-43
2022/04/03 12:00:33;;;;;;;3.08;1.25;;;10.60;98.50;;;;;;5075336;28;20176;-43
2022/04/03 12:03:00;;;;;;;2.83;1.17;;;10.50;99.40;;;;;;5077786;28;20159;-44
2022/04/03 12:05:26;;;;;;;3.65;1.00;;;10.40;99.40;;;;;;5079783;28;20083;-42
2022/04/03 12:07:51;;;;;;;5.40;1.80;;;10.00;99.80;;;;;;5079496;28;20044;-42
2022/04/03 12:10:28;;;;;;;4.57;1.30;;;9.90;99.90;;;;;;5055139;28;20134;-42
2022/04/03 12:12:57;;;;;;;3.45;1.30;;;9.80;99.90;;;;;;5051394;28;20059;-42
2022/04/03 12:15:27;;;;;;;2.92;0.82;;;9.80;99.90;;;;;;5057763;28;20626;-43
2022/04/03 12:17:56;;;;;;;3.33;1.30;;;9.70;99.90;;;;;;5076331;28;20055;-42
2022/04/03 12:20:22;;;;;;;3.85;1.40;;;9.80;99.90;;;;;;5072181;28;20067;-42
2022/04/03 12:22:52;;;;;;;2.08;0.70;;;9.80;99.90;;;;;;5076153;28;20474;-45
2022/04/03 12:25:19;;;;;;;1.95;1.10;;;9.90;99.90;;;;;;5077781;28;20048;-42
2022/04/03 12:27:45;;;;;;;4.20;1.00;;;10.00;99.90;;;;;;5076571;28;20106;-42
2022/04/03 12:30:11;;;;;;;1.65;0.80;;;10.00;99.90;;;;;;5073400;28;20628;-42
2022/04/03 12:32:40;;;;;;;4.75;1.30;;;10.10;99.90;;;;;;5053163;28;20105;-43
2022/04/03 12:35:12;;;;;;;3.17;0.90;;;10.20;99.90;;;;;;5056360;28;20067;-43
2022/04/03 12:37:41;;;;;;;21.42;19.85;;;10.20;99.90;;;;;;5079146;28;20573;-43
2022/04/03 12:40:11;;;;;;;4.53;1.38;;;10.10;99.90;;;;;;5075703;28;20090;-43
2022/04/03 12:42:42;;;;;;;2.63;1.10;;;10.10;99.90;;;;;;5069647;28;20503;-43
2022/04/03 12:45:22;;;;;;;2.55;1.25;;;10.00;99.90;;;;;;5073783;28;20157;-42
2022/04/03 12:47:55;;;;;;;2.10;1.30;;;9.90;99.10;;;;;;5077573;28;20533;-43
2022/04/03 12:50:21;;;;;;;;;;;9.70;98.70;;;;;;5079920;28;20062;-44
2022/04/03 12:52:50;;;;;;;3.45;0.70;;;9.90;99.50;;;;;;5079238;28;20282;-42
2022/04/03 12:55:22;;;;;;;3.17;0.80;;;9.90;99.90;;;;;;5077240;28;20044;-42